createdAt,value
2022-08-25T00:00:20.418Z,47.75
2022-08-25T00:02:55.725Z,47.86
2022-08-25T00:05:27.760Z,47.89
2022-08-25T00:07:59.296Z,48.32
2022-08-25T00:10:27.060Z,48.44
2022-08-25T00:12:54.666Z,48.65
2022-08-25T00:15:58.829Z,48.38
2022-08-25T00:18:46.195Z,48.87
2022-08-25T00:21:15.309Z,48.92
2022-08-25T00:23:45.717Z,49.18
2022-08-25T00:26:15.638Z,49.39
2022-08-25T00:28:44.956Z,49.54
2022-08-25T00:31:13.504Z,49.68
2022-08-25T00:33:42.164Z,49.75
2022-08-25T00:36:12.385Z,49.88
2022-08-25T00:38:40.283Z,49.74
2022-08-25T00:41:11.401Z,50.12
2022-08-25T00:43:47.519Z,50.24
2022-08-25T00:46:18.591Z,50.07
2022-08-25T00:48:53.027Z,50.31
2022-08-25T00:51:26.952Z,50.70
2022-08-25T00:53:54.954Z,50.66
2022-08-25T00:56:24.863Z,50.49
2022-08-25T00:58:52.775Z,50.57
2022-08-25T01:01:21.043Z,50.56
2022-08-25T01:03:48.991Z,50.79
2022-08-25T01:06:16.707Z,50.76
2022-08-25T01:08:44.714Z,50.92
2022-08-25T01:11:13.139Z,50.95
2022-08-25T01:13:46.834Z,51.15
2022-08-25T01:16:16.799Z,51.05
2022-08-25T01:18:48.371Z,51.17
2022-08-25T01:21:20.281Z,50.86
2022-08-25T01:23:49.582Z,51.38
2022-08-25T01:26:21.140Z,51.54
2022-08-25T01:29:17.302Z,51.59
2022-08-25T01:31:45.128Z,51.69
2022-08-25T01:34:13.342Z,51.65
2022-08-25T01:36:43.499Z,51.61
2022-08-25T01:39:12.149Z,51.81
2022-08-25T01:41:47.057Z,51.62
2022-08-25T01:44:17.298Z,51.71
2022-08-25T01:46:45.179Z,51.65
2022-08-25T01:49:12.896Z,51.50
2022-08-25T01:51:44.708Z,51.90
2022-08-25T01:54:21.313Z,51.94
2022-08-25T01:56:53.340Z,52.00
2022-08-25T01:59:28.213Z,52.25
2022-08-25T02:02:11.666Z,52.11
2022-08-25T02:05:01.559Z,52.50
2022-08-25T02:07:37.771Z,52.62
2022-08-25T02:10:10.194Z,52.55
2022-08-25T02:12:49.701Z,52.46
2022-08-25T02:15:23.915Z,52.66
2022-08-25T02:17:52.955Z,52.61
2022-08-25T02:20:27.646Z,52.97
2022-08-25T02:23:01.337Z,53.34
2022-08-25T02:25:29.242Z,53.09
2022-08-25T02:27:59.102Z,53.08
2022-08-25T02:30:28.518Z,53.58
2022-08-25T02:32:58.581Z,53.50
2022-08-25T02:35:26.425Z,53.46
2022-08-25T02:38:02.205Z,53.74
2022-08-25T02:40:33.718Z,53.62
2022-08-25T02:43:06.749Z,53.94
2022-08-25T02:45:40.015Z,54.18
2022-08-25T02:48:11.347Z,54.37
2022-08-25T02:50:47.565Z,54.42
2022-08-25T02:53:20.170Z,54.46
2022-08-25T02:56:01.890Z,54.39
2022-08-25T02:58:49.801Z,54.34
2022-08-25T03:01:22.206Z,54.31
2022-08-25T03:03:56.329Z,54.10
2022-08-25T03:06:24.926Z,54.10
2022-08-25T03:08:54.338Z,54.57
2022-08-25T03:11:28.148Z,54.63
2022-08-25T03:13:58.577Z,54.90
2022-08-25T03:16:34.421Z,54.94
2022-08-25T03:19:26.582Z,54.94
2022-08-25T03:21:56.307Z,55.16
2022-08-25T03:24:24.106Z,55.38
2022-08-25T03:26:55.831Z,55.51
2022-08-25T03:29:24.338Z,55.27
2022-08-25T03:31:53.040Z,55.31
2022-08-25T03:34:21.661Z,55.24
2022-08-25T03:36:53.392Z,55.14
2022-08-25T03:39:23.444Z,55.16
2022-08-25T03:41:53.581Z,55.50
2022-08-25T03:44:22.402Z,55.39
2022-08-25T03:46:52.610Z,55.62
2022-08-25T03:49:23.719Z,55.67
2022-08-25T03:51:53.843Z,55.61
2022-08-25T03:54:23.635Z,55.78
2022-08-25T03:56:51.570Z,55.63
2022-08-25T03:59:20.769Z,55.91
2022-08-25T04:01:52.778Z,56.26
2022-08-25T04:04:22.691Z,56.42
2022-08-25T04:06:50.801Z,56.28
2022-08-25T04:09:18.609Z,56.35
2022-08-25T04:11:46.518Z,56.60
2022-08-25T04:14:16.959Z,56.77
2022-08-25T04:16:46.670Z,56.75
2022-08-25T04:19:14.756Z,56.65
2022-08-25T04:21:43.040Z,56.91
2022-08-25T04:24:12.711Z,56.96
2022-08-25T04:26:42.693Z,56.88
2022-08-25T04:29:12.188Z,57.13
2022-08-25T04:31:41.700Z,57.19
2022-08-25T04:34:28.500Z,57.46
2022-08-25T04:36:57.921Z,57.68
2022-08-25T04:39:25.441Z,58.05
2022-08-25T04:41:53.344Z,58.11
2022-08-25T04:44:21.240Z,57.89
2022-08-25T04:46:49.665Z,58.08
2022-08-25T04:49:18.878Z,58.31
2022-08-25T04:51:46.993Z,58.40
2022-08-25T04:54:21.509Z,58.22
2022-08-25T04:56:50.244Z,58.17
2022-08-25T04:59:22.521Z,58.57
2022-08-25T05:01:52.319Z,58.49
2022-08-25T05:04:27.881Z,58.21
2022-08-25T05:06:56.395Z,58.33
2022-08-25T05:09:25.087Z,58.33
2022-08-25T05:11:52.979Z,58.29
2022-08-25T05:14:23.199Z,58.30
2022-08-25T05:16:55.399Z,58.34
2022-08-25T05:19:26.207Z,58.54
2022-08-25T05:21:54.132Z,58.67
2022-08-25T05:25:46.142Z,58.81
2022-08-25T05:28:15.453Z,58.54
2022-08-25T05:30:44.987Z,58.62
2022-08-25T05:33:13.586Z,58.90
2022-08-25T05:35:41.422Z,59.01
2022-08-25T05:38:15.328Z,58.88
2022-08-25T05:40:43.515Z,58.84
2022-08-25T05:43:12.311Z,58.87
2022-08-25T05:45:41.568Z,58.92
2022-08-25T05:48:09.344Z,58.87
2022-08-25T05:50:36.971Z,58.69
2022-08-25T05:53:04.961Z,58.64
2022-08-25T05:55:32.701Z,58.67
2022-08-25T05:58:00.803Z,58.56
2022-08-25T06:00:28.514Z,58.60
2022-08-25T06:02:57.014Z,58.43
2022-08-25T06:05:24.835Z,58.40
2022-08-25T06:07:53.134Z,58.06
2022-08-25T06:10:22.034Z,58.14
2022-08-25T06:12:50.254Z,57.76
2022-08-25T06:15:21.257Z,57.98
2022-08-25T06:17:49.874Z,57.27
2022-08-25T06:20:22.165Z,57.31
2022-08-25T06:22:54.101Z,57.08
2022-08-25T06:25:24.201Z,56.84
2022-08-25T06:27:52.313Z,56.88
2022-08-25T06:30:24.623Z,56.75
2022-08-25T06:32:56.935Z,56.43
2022-08-25T06:35:26.054Z,55.86
2022-08-25T06:37:54.273Z,55.83
2022-08-25T06:40:23.008Z,55.31
2022-08-25T06:42:50.676Z,55.63
2022-08-25T06:45:18.897Z,55.00
2022-08-25T06:47:46.605Z,55.07
2022-08-25T06:50:14.137Z,55.04
2022-08-25T06:52:43.329Z,54.75
2022-08-25T06:55:12.149Z,54.25
2022-08-25T06:57:39.845Z,53.60
2022-08-25T07:00:08.057Z,54.07
2022-08-25T07:02:35.810Z,53.47
2022-08-25T07:05:04.703Z,53.12
2022-08-25T07:07:43.729Z,52.85
2022-08-25T07:10:13.901Z,52.68
2022-08-25T07:12:47.119Z,52.37
2022-08-25T07:15:20.550Z,52.30
2022-08-25T07:17:49.331Z,51.78
2022-08-25T07:20:19.384Z,52.00
2022-08-25T07:22:47.462Z,51.64
2022-08-25T07:25:17.838Z,51.07
2022-08-25T07:27:46.177Z,50.67
2022-08-25T07:30:14.186Z,50.52
2022-08-25T07:35:37.491Z,47.24
2022-08-25T07:38:07.034Z,43.62
2022-08-25T07:40:42.788Z,41.38
2022-08-25T07:43:10.646Z,38.77
2022-08-25T07:45:41.143Z,36.56
2022-08-25T07:48:19.779Z,34.23
2022-08-25T07:50:49.379Z,31.89
2022-08-25T07:53:18.101Z,29.39
2022-08-25T07:55:47.373Z,28.57
2022-08-25T07:58:15.309Z,27.93
2022-08-25T08:00:43.315Z,27.74
2022-08-25T08:03:19.953Z,27.96
2022-08-25T08:05:59.745Z,27.49
2022-08-25T08:08:27.862Z,26.89
2022-08-25T08:11:05.399Z,26.85
2022-08-25T08:13:36.681Z,26.60
2022-08-25T08:16:10.288Z,26.58
2022-08-25T08:18:39.497Z,26.29
2022-08-25T08:21:12.710Z,24.70
2022-08-25T08:23:40.615Z,24.61
2022-08-25T08:26:10.241Z,23.75
2022-08-25T08:28:38.156Z,23.21
2022-08-25T08:31:06.070Z,22.46
2022-08-25T08:33:40.862Z,21.55
2022-08-25T08:36:12.449Z,21.10
2022-08-25T08:38:42.687Z,22.35
2022-08-25T08:42:09.626Z,22.22
2022-08-25T08:44:44.111Z,19.84
2022-08-25T08:47:19.767Z,18.90
2022-08-25T08:49:58.358Z,19.90
2022-08-25T08:52:36.646Z,18.47
2022-08-25T08:55:11.459Z,18.74
2022-08-25T09:00:20.074Z,17.52
2022-08-25T09:02:52.426Z,18.36
2022-08-25T09:05:22.519Z,17.50
2022-08-25T09:07:56.083Z,17.70
2022-08-25T09:10:27.286Z,17.11
2022-08-25T09:13:05.853Z,16.80
2022-08-25T09:16:07.962Z,16.89
2022-08-25T09:18:50.952Z,16.16
2022-08-25T09:21:28.699Z,17.61
2022-08-25T09:24:16.583Z,17.12
2022-08-25T09:26:54.791Z,15.87
2022-08-25T09:29:30.700Z,16.10
2022-08-25T09:32:01.312Z,14.94
2022-08-25T09:34:35.027Z,16.28
2022-08-25T09:37:03.037Z,16.82
2022-08-25T09:39:30.647Z,16.08
2022-08-25T09:42:00.964Z,18.38
2022-08-25T09:44:33.710Z,16.91
2022-08-25T09:47:05.190Z,16.27
2022-08-25T09:49:37.619Z,15.86
2022-08-25T09:52:34.707Z,17.97
2022-08-25T09:55:28.818Z,18.85
2022-08-25T09:58:00.629Z,17.79
2022-08-25T10:00:33.436Z,17.26
2022-08-25T10:03:22.447Z,15.34
2022-08-25T10:06:02.759Z,15.62
2022-08-25T10:08:35.270Z,14.77
2022-08-25T10:11:08.897Z,17.95
2022-08-25T10:13:40.999Z,15.71
2022-08-25T10:16:20.130Z,16.57
2022-08-25T10:19:03.416Z,18.61
2022-08-25T10:21:31.410Z,17.55
2022-08-25T10:24:01.667Z,14.91
2022-08-25T10:26:35.445Z,15.44
2022-08-25T10:29:15.763Z,15.28
2022-08-25T10:31:51.996Z,16.74
2022-08-25T10:34:36.014Z,15.60
2022-08-25T10:37:16.330Z,15.81
2022-08-25T10:40:00.989Z,14.44
2022-08-25T10:42:37.117Z,14.54
2022-08-25T10:45:32.739Z,14.50
2022-08-25T10:48:49.751Z,15.72
2022-08-25T10:51:52.578Z,13.96
2022-08-25T10:54:32.878Z,13.92
2022-08-25T10:57:13.685Z,14.89
2022-08-25T10:59:52.093Z,13.41
2022-08-25T11:03:01.061Z,13.06
2022-08-25T11:05:33.287Z,14.42
2022-08-25T11:08:09.429Z,13.84
2022-08-25T11:10:46.139Z,14.07
2022-08-25T11:13:23.551Z,13.04
2022-08-25T11:16:16.565Z,15.89
2022-08-25T11:18:55.305Z,15.25
2022-08-25T11:21:28.230Z,13.96
2022-08-25T11:24:05.612Z,13.21
2022-08-25T11:26:38.215Z,12.05
2022-08-25T11:29:14.322Z,11.60
2022-08-25T11:31:52.153Z,13.54
2022-08-25T11:34:22.743Z,13.77
2022-08-25T11:36:55.968Z,14.13
2022-08-25T11:39:40.464Z,12.29
2022-08-25T11:42:22.060Z,12.53
2022-08-25T11:45:01.703Z,11.41
2022-08-25T11:47:41.298Z,13.71
2022-08-25T11:50:25.819Z,15.33
2022-08-25T11:52:56.261Z,15.95
2022-08-25T11:55:33.534Z,14.38
2022-08-25T11:58:32.538Z,13.94
2022-08-25T12:01:02.044Z,12.77
2022-08-25T12:03:54.277Z,14.69
2022-08-25T12:06:26.781Z,14.02
2022-08-25T12:09:12.698Z,12.47
2022-08-25T12:11:47.833Z,10.74
2022-08-25T12:14:35.118Z,10.01
2022-08-25T12:17:17.431Z,9.92
2022-08-25T12:19:52.239Z,9.73
2022-08-25T12:22:51.492Z,9.02
2022-08-25T12:25:38.970Z,10.33
2022-08-25T12:28:20.185Z,11.54
2022-08-25T12:30:57.969Z,11.58
2022-08-25T12:33:42.801Z,10.82
2022-08-25T12:36:26.639Z,10.93
2022-08-25T12:38:54.788Z,11.30
2022-08-25T12:41:25.271Z,11.56
2022-08-25T12:44:09.845Z,11.51
2022-08-25T12:46:40.463Z,12.31
2022-08-25T12:49:32.175Z,15.10
2022-08-25T12:52:03.546Z,14.74
2022-08-25T12:54:43.496Z,12.70
2022-08-25T12:57:40.286Z,11.48
2022-08-25T13:00:18.390Z,11.17
2022-08-25T13:03:28.424Z,12.63
2022-08-25T13:06:32.947Z,13.33
2022-08-25T13:09:26.656Z,12.82
2022-08-25T13:12:01.770Z,11.20
2022-08-25T13:14:38.481Z,11.29
2022-08-25T13:17:09.568Z,12.75
2022-08-25T13:19:38.324Z,12.47
2022-08-25T13:22:16.423Z,14.03
2022-08-25T13:24:47.560Z,12.55
2022-08-25T13:27:23.099Z,11.96
2022-08-25T13:29:53.743Z,12.17
2022-08-25T13:32:31.939Z,12.48
2022-08-25T13:35:15.466Z,11.46
2022-08-25T13:37:45.578Z,10.82
2022-08-25T13:40:17.569Z,10.92
2022-08-25T13:42:54.448Z,10.99
2022-08-25T13:45:26.732Z,11.35
2022-08-25T13:47:56.310Z,10.45
2022-08-25T13:50:33.807Z,11.76
2022-08-25T13:53:03.743Z,11.71
2022-08-25T13:55:51.216Z,11.68
2022-08-25T13:58:24.203Z,11.45
2022-08-25T14:01:22.331Z,13.07
2022-08-25T14:04:18.695Z,13.68
2022-08-25T14:06:48.026Z,13.96
2022-08-25T14:09:18.220Z,13.66
2022-08-25T14:11:58.253Z,14.13
2022-08-25T14:14:34.949Z,13.61
2022-08-25T14:17:21.857Z,13.18
2022-08-25T14:19:56.363Z,13.10
2022-08-25T14:22:24.370Z,14.46
2022-08-25T14:24:54.076Z,14.56
2022-08-25T14:27:21.902Z,14.88
2022-08-25T14:29:52.818Z,14.82
2022-08-25T14:32:20.714Z,14.78
2022-08-25T14:34:48.628Z,13.99
2022-08-25T14:37:20.862Z,12.66
2022-08-25T14:39:54.621Z,13.74
2022-08-25T14:42:22.669Z,17.27
2022-08-25T14:44:53.277Z,17.23
2022-08-25T14:47:21.282Z,16.77
2022-08-25T14:49:51.892Z,16.37
2022-08-25T14:52:26.601Z,17.73
2022-08-25T14:54:54.411Z,19.06
2022-08-25T14:57:22.126Z,20.74
2022-08-25T14:59:51.836Z,21.33
2022-08-25T15:02:22.767Z,22.05
2022-08-25T15:05:00.455Z,22.50
2022-08-25T15:07:49.977Z,22.14
2022-08-25T15:10:17.877Z,22.20
2022-08-25T15:12:51.115Z,23.27
2022-08-25T15:15:21.778Z,23.42
2022-08-25T15:17:50.457Z,23.75
2022-08-25T15:20:18.322Z,24.32
2022-08-25T15:22:48.672Z,24.85
2022-08-25T15:25:16.754Z,25.94
2022-08-25T15:27:45.452Z,25.60
2022-08-25T15:30:14.871Z,24.92
2022-08-25T15:32:42.979Z,24.99
2022-08-25T15:35:11.194Z,25.43
2022-08-25T15:37:42.994Z,26.30
2022-08-25T15:40:12.649Z,26.74
2022-08-25T15:42:42.947Z,26.33
2022-08-25T15:45:14.360Z,26.76
2022-08-25T15:47:42.247Z,26.48
2022-08-25T15:50:14.566Z,27.19
2022-08-25T15:52:47.569Z,27.23
2022-08-25T15:55:19.808Z,27.78
2022-08-25T15:57:47.999Z,27.28
2022-08-25T16:00:18.898Z,28.04
2022-08-25T16:02:46.947Z,28.42
2022-08-25T16:05:16.252Z,28.16
2022-08-25T16:07:45.916Z,27.95
2022-08-25T16:10:14.137Z,28.01
2022-08-25T16:12:43.153Z,28.15
2022-08-25T16:15:12.189Z,28.37
2022-08-25T16:17:40.574Z,28.02
2022-08-25T16:20:13.782Z,28.64
2022-08-25T16:22:41.832Z,28.43
2022-08-25T16:25:11.508Z,29.16
2022-08-25T16:27:39.287Z,28.79
2022-08-25T16:30:11.755Z,28.80
2022-08-25T16:32:41.733Z,28.79
2022-08-25T16:35:11.223Z,28.72
2022-08-25T16:37:39.054Z,29.32
2022-08-25T16:40:10.326Z,29.49
2022-08-25T16:42:38.376Z,29.54
2022-08-25T16:45:08.487Z,29.84
2022-08-25T16:47:38.255Z,30.38
2022-08-25T16:50:10.907Z,31.25
2022-08-25T16:52:56.526Z,31.02
2022-08-25T16:55:26.632Z,31.42
2022-08-25T16:57:54.730Z,31.48
2022-08-25T17:00:28.227Z,31.72
2022-08-25T17:02:59.187Z,31.49
2022-08-25T17:05:28.276Z,32.01
2022-08-25T17:08:13.888Z,32.35
2022-08-25T17:10:43.913Z,32.66
2022-08-25T17:13:12.786Z,32.59
2022-08-25T17:15:46.764Z,32.80
2022-08-25T17:18:14.865Z,33.30
2022-08-25T17:20:44.555Z,33.08
2022-08-25T17:23:13.161Z,33.36
2022-08-25T17:25:42.924Z,33.49
2022-08-25T17:28:11.915Z,33.74
2022-08-25T17:30:40.189Z,34.32
2022-08-25T17:33:09.278Z,34.48
2022-08-25T17:35:40.309Z,34.82
2022-08-25T17:38:08.715Z,35.07
2022-08-25T17:40:37.401Z,35.07
2022-08-25T17:43:05.848Z,35.73
2022-08-25T17:45:37.363Z,35.82
2022-08-25T17:48:13.983Z,35.78
2022-08-25T17:50:43.171Z,36.56
2022-08-25T17:53:11.491Z,36.99
2022-08-25T17:55:42.314Z,37.40
2022-08-25T17:58:13.304Z,37.98
2022-08-25T18:00:43.745Z,37.49
2022-08-25T18:03:12.026Z,38.32
2022-08-25T18:05:39.830Z,38.93
2022-08-25T18:08:10.599Z,39.20
2022-08-25T18:10:39.302Z,39.36
2022-08-25T18:13:07.068Z,39.91
2022-08-25T18:15:39.079Z,39.95
2022-08-25T18:18:10.978Z,40.83
2022-08-25T18:20:41.105Z,41.01
2022-08-25T18:23:12.813Z,41.38
2022-08-25T18:25:41.738Z,41.72
2022-08-25T18:28:09.867Z,41.35
2022-08-25T18:30:37.832Z,41.43
2022-08-25T18:33:06.209Z,41.97
2022-08-25T18:35:33.973Z,41.86
2022-08-25T18:38:19.079Z,42.01
2022-08-25T18:44:27.913Z,42.62
2022-08-25T18:46:56.589Z,42.86
2022-08-25T18:49:26.699Z,42.75
2022-08-25T18:51:56.546Z,42.75
2022-08-25T18:54:24.262Z,43.14
2022-08-25T18:56:54.614Z,43.13
2022-08-25T18:59:23.677Z,43.29
2022-08-25T19:01:52.724Z,43.18
2022-08-25T19:04:20.801Z,43.17
2022-08-25T19:06:56.041Z,43.28
2022-08-25T19:09:23.820Z,43.75
2022-08-25T19:11:54.659Z,44.05
2022-08-25T19:14:22.553Z,44.14
2022-08-25T19:16:51.752Z,44.33
2022-08-25T19:19:21.165Z,44.94
2022-08-25T19:21:48.874Z,44.68
2022-08-25T19:24:19.289Z,44.46
2022-08-25T19:26:49.593Z,44.32
2022-08-25T19:29:21.906Z,43.98
2022-08-25T19:31:50.417Z,43.62
2022-08-25T19:34:25.333Z,43.41
2022-08-25T19:36:57.647Z,43.87
2022-08-25T19:39:26.359Z,43.90
2022-08-25T19:41:54.271Z,43.92
2022-08-25T19:44:24.175Z,43.79
2022-08-25T19:46:51.982Z,43.81
2022-08-25T19:49:23.299Z,43.88
2022-08-25T19:51:53.488Z,43.75
2022-08-25T19:54:24.649Z,43.65
2022-08-25T19:56:54.693Z,43.72
2022-08-25T19:59:26.820Z,43.85
2022-08-25T20:02:10.853Z,44.24
2022-08-25T20:04:38.762Z,44.20
2022-08-25T20:07:07.771Z,44.48
2022-08-25T20:09:40.916Z,44.53
2022-08-25T20:12:11.684Z,44.50
2022-08-25T20:14:41.430Z,44.64
2022-08-25T20:17:23.987Z,44.51
2022-08-25T20:19:55.438Z,44.67
2022-08-25T20:22:26.224Z,44.90
2022-08-25T20:24:56.115Z,45.16
2022-08-25T20:27:27.966Z,45.32
2022-08-25T20:29:57.075Z,45.47
2022-08-25T20:32:25.184Z,45.65
2022-08-25T20:34:55.832Z,46.15
2022-08-25T20:37:24.021Z,45.95
2022-08-25T20:39:52.568Z,46.09
2022-08-25T20:42:20.527Z,46.27
2022-08-25T20:44:48.441Z,46.50
2022-08-25T20:47:20.516Z,46.44
2022-08-25T20:49:48.934Z,46.49
2022-08-25T20:52:18.578Z,46.75
2022-08-25T20:54:49.481Z,46.76
2022-08-25T20:57:24.313Z,46.48
2022-08-25T20:59:54.410Z,46.63
2022-08-25T21:02:24.150Z,46.99
2022-08-25T21:04:52.424Z,47.12
2022-08-25T21:07:20.474Z,47.18
2022-08-25T21:09:48.945Z,47.41
2022-08-25T21:12:17.056Z,47.44
2022-08-25T21:14:44.872Z,47.74
2022-08-25T21:17:12.910Z,47.96
2022-08-25T21:19:43.068Z,47.93
2022-08-25T21:22:11.032Z,48.40
2022-08-25T21:24:39.409Z,48.49
2022-08-25T21:27:07.125Z,48.62
2022-08-25T21:29:35.231Z,49.02
2022-08-25T21:32:03.974Z,49.38
2022-08-25T21:34:32.147Z,49.44
2022-08-25T21:37:01.248Z,49.96
2022-08-25T21:39:31.925Z,50.02
2022-08-25T21:42:00.563Z,49.75
2022-08-25T21:44:29.801Z,50.18
2022-08-25T21:46:57.707Z,50.55
2022-08-25T21:49:26.158Z,50.67
2022-08-25T21:52:04.358Z,50.87
2022-08-25T21:54:33.541Z,51.47
2022-08-25T21:57:03.626Z,51.75
2022-08-25T21:59:33.461Z,51.76
2022-08-25T22:02:03.236Z,51.92
2022-08-25T22:04:32.203Z,51.61
2022-08-25T22:07:00.204Z,52.11
2022-08-25T22:09:28.617Z,52.38
2022-08-25T22:11:58.718Z,52.51
2022-08-25T22:14:27.926Z,52.47
2022-08-25T22:16:56.019Z,52.80
2022-08-25T22:19:24.665Z,53.17
2022-08-25T22:21:53.158Z,53.37
2022-08-25T22:24:22.085Z,53.59
2022-08-25T22:26:50.187Z,53.88
2022-08-25T22:29:24.680Z,53.91
2022-08-25T22:31:53.503Z,54.37
2022-08-25T22:34:31.622Z,54.54
2022-08-25T22:37:00.127Z,54.51
2022-08-25T22:39:28.255Z,54.43
2022-08-25T22:41:56.297Z,54.94
2022-08-25T22:44:25.668Z,54.95
2022-08-25T22:46:54.069Z,55.32
2022-08-25T22:49:22.490Z,55.36
2022-08-25T22:51:50.886Z,55.40
2022-08-25T22:54:18.900Z,55.48
2022-08-25T22:56:46.520Z,55.77
2022-08-25T22:59:15.369Z,55.88
2022-08-25T23:01:46.143Z,55.80
2022-08-25T23:04:14.848Z,56.08
2022-08-25T23:06:45.667Z,56.56
2022-08-25T23:09:14.972Z,56.61
2022-08-25T23:11:43.277Z,56.97
2022-08-25T23:14:12.189Z,57.26
2022-08-25T23:16:42.093Z,57.07
2022-08-25T23:19:13.735Z,56.85
2022-08-25T23:22:00.137Z,56.58
2022-08-25T23:24:29.744Z,56.88
2022-08-25T23:26:58.851Z,57.47
2022-08-25T23:29:27.535Z,57.60
2022-08-25T23:31:55.496Z,57.58
2022-08-25T23:34:25.700Z,58.04
2022-08-25T23:36:54.185Z,57.83
2022-08-25T23:39:22.181Z,57.95
2022-08-25T23:41:50.609Z,58.02
2022-08-25T23:44:18.810Z,58.51
2022-08-25T23:46:47.671Z,58.45
2022-08-25T23:49:18.672Z,58.90
2022-08-25T23:51:50.113Z,58.82
2022-08-25T23:54:21.477Z,59.12
2022-08-25T23:56:51.686Z,59.14
2022-08-25T23:59:20.482Z,59.32
